Airfield :
LOGIN :

Register | Disclaimer

   EN    FR    IT 

 










Legend :    VFR   Marginal VFR   IFR   Intensive IFR   Very Intensive IFR
Visi :
Ceiling :
>= 8 km
>= 3000ft
5 to 8 km
1000 to 3000 ft
1500m to 5 km
500 to 1000 ft
800 to 1500m
200 to 500 ft
< 800m
< 200 ft
Symbols :   Thunderstorms  Fog  Heavy snow  Heavy precipitations  Wind > 20 kt
SIGMETs :     Misc.  Thunderstorms  Icing  Turbulence  Mountain Waves  Volcanic Ashes






- Airport Elevation : 267 ft


EGDR - Culdrose Navy

CURRENT METAR :
  • 172050Z AUTO 09003KT 9999 OVC018/// 05/03 Q1037

EXPIRED METARs :
  • 171950Z AUTO 08002KT 9999 BKN017/// 04/03 Q1037
  • 171920Z 10004KT 9999 BKN018 05/04 Q1037 NOSIG RMK WHT WHT
  • 171850Z 06002KT 9999 FEW018 02/01 Q1037 NOSIG RMK BLU BLU

TAF TAF EGDR
Valid from the 17 at 15:00 until the 18 at 00:00 UTC


171358Z 1715/1724 10005KT 9999 FEW018
TEMPO 1718/1724 SCT018



MET'MAP, your aeronautical weather chart ! - Copyright ORBIFLY December 2007 - Disclaimer

ORBIFLY MET'MAP TEAM :

Programming & Development : Alexandra Zaïnal
Concept & original design : Baudouin d'Aumeries
Assistance for programming : Marc-Olivier Méhu
Technical & hardware support : Manuel Goepfert

Contact : metmap@orbifly.com




SOURCES & CREDITS :

   NOAA